createdAt,value
2023-02-14T00:00:48.721Z,5.80
2023-02-14T00:03:15.846Z,5.70
2023-02-14T00:05:42.488Z,5.70
2023-02-14T00:08:09.104Z,5.70
2023-02-14T00:10:35.881Z,5.70
2023-02-14T00:13:02.546Z,5.60
2023-02-14T00:15:29.206Z,5.60
2023-02-14T00:17:59.883Z,5.60
2023-02-14T00:20:27.859Z,5.60
2023-02-14T00:22:54.811Z,5.60
2023-02-14T00:25:21.490Z,5.60
2023-02-14T00:27:48.156Z,5.50
2023-02-14T00:30:14.893Z,5.50
2023-02-14T00:32:42.814Z,5.50
2023-02-14T00:35:10.789Z,5.50
2023-02-14T00:37:37.784Z,5.50
2023-02-14T00:40:06.082Z,5.50
2023-02-14T00:42:32.725Z,5.50
2023-02-14T00:44:59.354Z,5.40
2023-02-14T00:47:26.105Z,5.40
2023-02-14T00:49:52.765Z,5.40
2023-02-14T00:52:19.442Z,5.50
2023-02-14T00:54:46.039Z,5.40
2023-02-14T00:57:12.606Z,5.40
2023-02-14T00:59:39.338Z,5.40
2023-02-14T01:02:06.261Z,5.40
2023-02-14T01:04:32.984Z,5.30
2023-02-14T01:06:59.615Z,5.30
2023-02-14T01:09:26.255Z,5.30
2023-02-14T01:11:52.963Z,5.20
2023-02-14T01:14:19.613Z,5.20
2023-02-14T01:16:46.402Z,5.20
2023-02-14T01:19:13.332Z,5.10
2023-02-14T01:21:39.956Z,5.10
2023-02-14T01:24:07.874Z,5.00
2023-02-14T01:26:35.265Z,5.00
2023-02-14T01:29:02.971Z,5.00
2023-02-14T01:31:32.081Z,4.90
2023-02-14T01:33:59.828Z,4.90
2023-02-14T01:36:32.418Z,4.80
2023-02-14T01:39:02.337Z,4.80
2023-02-14T01:41:32.371Z,4.70
2023-02-14T01:44:27.013Z,4.70
2023-02-14T01:46:54.457Z,4.70
2023-02-14T01:49:35.447Z,4.60
2023-02-14T01:52:12.557Z,4.60
2023-02-14T01:54:43.411Z,4.60
2023-02-14T01:57:14.180Z,4.50
2023-02-14T01:59:47.410Z,4.50
2023-02-14T02:02:14.097Z,4.40
2023-02-14T02:04:45.608Z,4.40
2023-02-14T02:07:20.849Z,4.30
2023-02-14T02:09:53.272Z,4.30
2023-02-14T02:12:20.383Z,4.30
2023-02-14T02:14:48.593Z,4.30
2023-02-14T02:17:34.587Z,4.30
2023-02-14T02:20:10.158Z,4.20
2023-02-14T02:23:13.572Z,4.20
2023-02-14T02:26:07.599Z,4.10
2023-02-14T02:29:11.697Z,4.10
2023-02-14T02:31:47.373Z,4.10
2023-02-14T02:34:55.031Z,4.10
2023-02-14T02:37:36.366Z,4.00
2023-02-14T02:40:28.496Z,4.00
2023-02-14T02:43:15.155Z,4.00
2023-02-14T02:46:16.860Z,4.00
2023-02-14T02:49:37.579Z,3.90
2023-02-14T02:52:29.571Z,3.90
2023-02-14T02:55:06.583Z,3.90
2023-02-14T02:57:37.543Z,3.80
2023-02-14T03:00:07.605Z,3.70
2023-02-14T03:03:10.002Z,3.70
2023-02-14T03:05:37.681Z,3.60
2023-02-14T03:08:05.744Z,3.60
2023-02-14T03:10:36.161Z,3.60
2023-02-14T03:13:24.575Z,3.60
2023-02-14T03:16:16.378Z,3.60
2023-02-14T03:19:28.553Z,3.60
2023-02-14T03:22:13.634Z,3.60
2023-02-14T03:24:45.997Z,3.50
2023-02-14T03:27:24.959Z,3.50
2023-02-14T03:30:09.835Z,3.50
2023-02-14T03:32:45.475Z,3.50
2023-02-14T03:35:30.766Z,3.50
2023-02-14T03:38:11.392Z,3.50
2023-02-14T03:40:54.656Z,3.50
2023-02-14T03:43:39.107Z,3.40
2023-02-14T03:46:20.920Z,3.40
2023-02-14T03:48:50.340Z,3.40
2023-02-14T03:51:19.960Z,3.40
2023-02-14T03:53:50.891Z,3.30
2023-02-14T03:56:34.573Z,3.30
2023-02-14T03:59:09.124Z,3.30
2023-02-14T04:01:58.323Z,3.30
2023-02-14T04:04:28.588Z,3.20
2023-02-14T04:06:55.441Z,3.20
2023-02-14T04:09:22.135Z,3.20
2023-02-14T04:11:50.384Z,3.10
2023-02-14T04:14:17.842Z,3.10
2023-02-14T04:17:03.065Z,3.10
2023-02-14T04:19:29.670Z,3.10
2023-02-14T04:21:56.295Z,3.10
2023-02-14T04:24:22.861Z,3.10
2023-02-14T04:27:10.123Z,3.00
2023-02-14T04:29:50.423Z,3.00
2023-02-14T04:32:20.372Z,3.00
2023-02-14T04:34:47.364Z,2.90
2023-02-14T04:37:16.164Z,2.90
2023-02-14T04:39:42.812Z,2.90
2023-02-14T04:42:09.688Z,2.90
2023-02-14T04:44:38.152Z,2.90
2023-02-14T04:47:05.327Z,2.90
2023-02-14T04:49:32.294Z,2.80
2023-02-14T04:51:58.968Z,2.80
2023-02-14T04:54:25.597Z,2.80
2023-02-14T04:56:52.249Z,2.80
2023-02-14T04:59:18.913Z,2.80
2023-02-14T05:01:45.524Z,2.80
2023-02-14T05:04:12.168Z,2.80
2023-02-14T05:06:38.825Z,2.80
2023-02-14T05:09:05.739Z,2.80
2023-02-14T05:11:32.772Z,2.80
2023-02-14T05:13:59.384Z,2.70
2023-02-14T05:16:26.218Z,2.80
2023-02-14T05:18:52.902Z,2.80
2023-02-14T05:21:19.489Z,2.70
2023-02-14T05:23:46.491Z,2.70
2023-02-14T05:26:13.217Z,2.70
2023-02-14T05:28:40.979Z,2.70
2023-02-14T05:31:08.749Z,2.70
2023-02-14T05:33:35.481Z,2.70
2023-02-14T05:36:02.744Z,2.70
2023-02-14T05:38:30.681Z,2.70
2023-02-14T05:40:57.415Z,2.60
2023-02-14T05:43:24.204Z,2.60
2023-02-14T05:45:50.858Z,2.60
2023-02-14T05:48:17.899Z,2.70
2023-02-14T05:50:45.478Z,2.60
2023-02-14T05:53:13.216Z,2.60
2023-02-14T05:55:40.122Z,2.60
2023-02-14T05:58:07.384Z,2.60
2023-02-14T06:00:34.392Z,2.70
2023-02-14T06:03:01.165Z,2.60
2023-02-14T06:05:27.810Z,2.60
2023-02-14T06:07:54.536Z,2.60
2023-02-14T06:10:23.029Z,2.70
2023-02-14T06:12:51.680Z,2.60
2023-02-14T06:15:18.936Z,2.60
2023-02-14T06:17:47.087Z,2.60
2023-02-14T06:20:13.817Z,2.60
2023-02-14T06:22:40.408Z,2.60
2023-02-14T06:25:07.583Z,2.50
2023-02-14T06:27:34.286Z,2.50
2023-02-14T06:30:00.956Z,2.40
2023-02-14T06:32:27.683Z,2.40
2023-02-14T06:34:54.333Z,2.40
2023-02-14T06:37:21.070Z,2.40
2023-02-14T06:39:47.721Z,2.40
2023-02-14T06:42:14.345Z,2.40
2023-02-14T06:44:41.020Z,2.40
2023-02-14T06:47:08.516Z,2.40
2023-02-14T06:49:35.155Z,2.40
2023-02-14T06:52:02.005Z,2.40
2023-02-14T06:54:28.622Z,2.40
2023-02-14T06:56:55.293Z,2.40
2023-02-14T06:59:22.040Z,2.40
2023-02-14T07:01:48.686Z,2.40
2023-02-14T07:04:15.714Z,2.40
2023-02-14T07:06:42.298Z,2.40
2023-02-14T07:09:08.929Z,2.40
2023-02-14T07:11:35.618Z,2.40
2023-02-14T07:14:02.204Z,2.40
2023-02-14T07:16:28.839Z,2.40
2023-02-14T07:18:55.411Z,2.40
2023-02-14T07:21:22.015Z,2.30
2023-02-14T07:23:49.997Z,2.30
2023-02-14T07:26:18.102Z,2.30
2023-02-14T07:28:51.735Z,2.30
2023-02-14T07:31:19.967Z,2.30
2023-02-14T07:33:46.760Z,2.30
2023-02-14T07:36:13.405Z,2.30
2023-02-14T07:38:40.060Z,2.30
2023-02-14T07:41:06.906Z,2.30
2023-02-14T07:43:34.480Z,2.30
2023-02-14T07:46:02.782Z,2.40
2023-02-14T07:48:32.492Z,2.40
2023-02-14T07:51:00.693Z,2.40
2023-02-14T07:53:27.579Z,2.40
2023-02-14T07:55:54.292Z,2.50
2023-02-14T07:58:20.952Z,2.50
2023-02-14T08:00:47.662Z,2.50
2023-02-14T08:03:15.144Z,2.50
2023-02-14T08:05:41.869Z,2.60
2023-02-14T08:08:08.689Z,2.60
2023-02-14T08:10:35.332Z,2.70
2023-02-14T08:13:03.427Z,2.70
2023-02-14T08:15:53.002Z,2.80
2023-02-14T08:18:23.056Z,2.90
2023-02-14T08:20:50.991Z,2.90
2023-02-14T08:23:18.892Z,3.00
2023-02-14T08:25:46.202Z,3.10
2023-02-14T08:28:13.744Z,3.20
2023-02-14T08:30:40.926Z,3.30
2023-02-14T08:33:07.666Z,3.50
2023-02-14T08:35:34.920Z,3.60
2023-02-14T08:38:01.697Z,3.70
2023-02-14T08:40:28.582Z,3.90
2023-02-14T08:42:55.348Z,4.00
2023-02-14T08:45:22.344Z,4.00
2023-02-14T08:47:48.957Z,4.10
2023-02-14T08:50:17.352Z,4.20
2023-02-14T08:52:44.441Z,4.40
2023-02-14T08:55:12.672Z,4.60
2023-02-14T08:57:39.770Z,4.90
2023-02-14T09:00:07.447Z,5.20
2023-02-14T09:02:34.409Z,5.50
2023-02-14T09:05:01.080Z,5.90
2023-02-14T09:07:27.905Z,6.40
2023-02-14T09:09:54.565Z,6.70
2023-02-14T09:12:21.310Z,7.00
2023-02-14T09:14:47.986Z,7.30
2023-02-14T09:17:16.019Z,8.00
2023-02-14T09:19:42.901Z,8.80
2023-02-14T09:22:11.196Z,9.50
2023-02-14T09:24:38.985Z,10.10
2023-02-14T09:27:06.494Z,10.50
2023-02-14T09:29:33.612Z,10.70
2023-02-14T09:32:01.911Z,10.90
2023-02-14T09:34:29.352Z,11.10
2023-02-14T09:37:14.775Z,11.40
2023-02-14T09:39:41.422Z,11.90
2023-02-14T09:42:32.587Z,12.50
2023-02-14T09:45:26.832Z,13.00
2023-02-14T09:48:03.877Z,13.70
2023-02-14T09:50:40.231Z,14.50
2023-02-14T09:53:19.875Z,15.40
2023-02-14T09:55:53.920Z,16.10
2023-02-14T09:58:29.088Z,16.60
2023-02-14T10:01:12.674Z,16.90
2023-02-14T10:04:07.427Z,17.60
2023-02-14T10:07:09.324Z,18.70
2023-02-14T10:09:48.042Z,19.90
2023-02-14T10:12:31.744Z,20.70
2023-02-14T10:15:02.138Z,21.50
2023-02-14T10:17:44.944Z,22.00
2023-02-14T10:20:22.029Z,22.10
2023-02-14T10:23:14.508Z,22.00
2023-02-14T10:25:48.762Z,21.80
2023-02-14T10:28:22.000Z,21.50
2023-02-14T10:31:14.848Z,21.20
2023-02-14T10:33:49.344Z,20.80
2023-02-14T10:36:29.497Z,20.70
2023-02-14T10:39:32.005Z,20.70
2023-02-14T10:42:18.587Z,20.60
2023-02-14T10:44:53.004Z,20.80
2023-02-14T10:47:25.565Z,21.20
2023-02-14T10:50:18.706Z,21.40
2023-02-14T10:52:48.283Z,21.10
2023-02-14T10:55:31.545Z,20.80
2023-02-14T10:58:01.422Z,20.40
2023-02-14T11:00:34.331Z,20.10
2023-02-14T11:03:06.246Z,20.00
2023-02-14T11:05:48.444Z,20.00
2023-02-14T11:08:23.907Z,20.30
2023-02-14T11:10:51.458Z,20.40
2023-02-14T11:13:28.711Z,20.10
2023-02-14T11:15:59.969Z,19.90
2023-02-14T11:18:32.748Z,19.50
2023-02-14T11:21:07.254Z,19.10
2023-02-14T11:23:36.737Z,18.70
2023-02-14T11:26:07.397Z,18.50
2023-02-14T11:28:34.860Z,18.50
2023-02-14T11:31:02.405Z,18.50
2023-02-14T11:33:40.402Z,18.40
2023-02-14T11:36:16.717Z,18.30
2023-02-14T11:38:45.202Z,18.10
2023-02-14T11:41:14.896Z,17.70
2023-02-14T11:43:43.996Z,17.30
2023-02-14T11:46:52.188Z,17.00
2023-02-14T11:49:32.584Z,17.10
2023-02-14T11:52:10.207Z,17.40
2023-02-14T11:54:40.214Z,17.60
2023-02-14T11:57:32.478Z,17.70
2023-02-14T12:00:02.359Z,17.80
2023-02-14T12:02:36.331Z,18.00
2023-02-14T12:05:31.389Z,18.10
2023-02-14T12:08:02.125Z,18.30
2023-02-14T12:10:35.167Z,18.30
2023-02-14T12:13:10.176Z,18.50
2023-02-14T12:15:52.098Z,18.60
2023-02-14T12:18:43.990Z,18.80
2023-02-14T12:21:37.005Z,18.70
2023-02-14T12:24:07.365Z,18.60
2023-02-14T12:26:57.033Z,18.70
2023-02-14T12:29:36.838Z,18.80
2023-02-14T12:32:22.605Z,18.80
2023-02-14T12:34:50.396Z,18.90
2023-02-14T12:37:26.677Z,19.00
2023-02-14T12:40:16.190Z,19.00
2023-02-14T12:42:48.536Z,19.00
2023-02-14T12:45:33.700Z,19.00
2023-02-14T12:48:27.410Z,19.00
2023-02-14T12:51:30.398Z,19.00
2023-02-14T12:54:15.902Z,18.80
2023-02-14T12:57:07.767Z,18.90
2023-02-14T12:59:41.642Z,18.80
2023-02-14T13:02:57.407Z,18.70
2023-02-14T13:05:37.924Z,18.60
2023-02-14T13:08:48.009Z,18.50
2023-02-14T13:11:37.218Z,18.30
2023-02-14T13:14:09.582Z,18.20
2023-02-14T13:16:54.513Z,18.10
2023-02-14T13:19:29.948Z,17.90
2023-02-14T13:21:59.785Z,17.70
2023-02-14T13:24:34.787Z,17.60
2023-02-14T13:27:06.911Z,17.30
2023-02-14T13:30:00.653Z,17.10
2023-02-14T13:32:33.035Z,16.90
2023-02-14T13:35:00.555Z,16.70
2023-02-14T13:37:28.275Z,16.50
2023-02-14T13:39:59.123Z,16.50
2023-02-14T13:42:54.189Z,16.30
2023-02-14T13:45:40.772Z,16.20
2023-02-14T13:48:23.459Z,16.10
2023-02-14T13:51:03.785Z,15.90
2023-02-14T13:53:38.409Z,15.90
2023-02-14T13:56:16.902Z,15.70
2023-02-14T13:58:52.073Z,15.60
2023-02-14T14:01:33.985Z,15.50
2023-02-14T14:04:03.522Z,15.40
2023-02-14T14:06:30.423Z,15.20
2023-02-14T14:08:57.343Z,15.20
2023-02-14T14:11:23.960Z,15.10
2023-02-14T14:13:50.505Z,15.00
2023-02-14T14:16:20.531Z,14.90
2023-02-14T14:18:47.565Z,14.80
2023-02-14T14:21:29.178Z,14.80
2023-02-14T14:24:22.702Z,14.70
2023-02-14T14:27:06.572Z,14.60
2023-02-14T14:29:46.765Z,14.50
2023-02-14T14:32:37.891Z,14.50
2023-02-14T14:35:06.384Z,14.40
2023-02-14T14:37:45.616Z,14.40
2023-02-14T14:40:38.521Z,14.30
2023-02-14T14:43:23.191Z,14.30
2023-02-14T14:45:52.694Z,14.30
2023-02-14T14:48:27.459Z,14.20
2023-02-14T14:50:54.825Z,14.20
2023-02-14T14:53:29.066Z,14.10
2023-02-14T14:55:56.746Z,14.10
2023-02-14T14:58:42.123Z,14.00
2023-02-14T15:01:21.358Z,14.00
2023-02-14T15:03:48.272Z,14.00
2023-02-14T15:06:20.678Z,13.90
2023-02-14T15:08:49.121Z,13.90
2023-02-14T15:11:39.553Z,13.80
2023-02-14T15:14:13.275Z,13.80
2023-02-14T15:16:57.496Z,13.70
2023-02-14T15:19:37.196Z,13.70
2023-02-14T15:22:18.170Z,13.70
2023-02-14T15:24:45.265Z,13.60
2023-02-14T15:27:16.234Z,13.60
2023-02-14T15:29:52.334Z,13.50
2023-02-14T15:32:20.222Z,13.50
2023-02-14T15:34:47.267Z,13.40
2023-02-14T15:37:14.378Z,13.40
2023-02-14T15:39:46.661Z,13.30
2023-02-14T15:42:32.612Z,13.30
2023-02-14T15:45:26.006Z,13.30
2023-02-14T15:47:55.631Z,13.20
2023-02-14T15:50:29.592Z,13.20
2023-02-14T15:53:20.192Z,13.20
2023-02-14T15:55:49.648Z,13.20
2023-02-14T15:58:24.868Z,13.10
2023-02-14T16:00:53.385Z,13.10
2023-02-14T16:03:26.289Z,13.00
2023-02-14T16:05:54.727Z,12.90
2023-02-14T16:08:37.327Z,12.90
2023-02-14T16:11:14.591Z,12.80
2023-02-14T16:13:44.786Z,12.70
2023-02-14T16:16:13.764Z,12.70
2023-02-14T16:18:49.421Z,12.60
2023-02-14T16:21:18.079Z,12.50
2023-02-14T16:24:07.682Z,12.40
2023-02-14T16:26:38.066Z,12.40
2023-02-14T16:29:16.593Z,12.30
2023-02-14T16:34:37.509Z,12.10
2023-02-14T16:37:23.413Z,12.00
2023-02-14T16:39:52.918Z,11.90
2023-02-14T16:42:20.009Z,11.80
2023-02-14T16:44:46.999Z,11.70
2023-02-14T16:47:15.710Z,11.70
2023-02-14T16:49:42.403Z,11.60
2023-02-14T16:52:23.417Z,11.50
2023-02-14T16:54:50.303Z,11.40
2023-02-14T16:57:20.785Z,11.30
2023-02-14T16:59:47.546Z,11.20
2023-02-14T17:02:14.221Z,11.20
2023-02-14T17:04:41.063Z,11.10
2023-02-14T17:07:08.163Z,11.00
2023-02-14T17:09:41.284Z,10.90
2023-02-14T17:12:14.692Z,10.80
2023-02-14T17:14:44.035Z,10.70
2023-02-14T17:17:11.398Z,10.70
2023-02-14T17:19:38.195Z,10.60
2023-02-14T17:22:05.041Z,10.50
2023-02-14T17:24:32.261Z,10.40
2023-02-14T17:26:58.862Z,10.40
2023-02-14T17:29:25.528Z,10.30
2023-02-14T17:31:52.262Z,10.30
2023-02-14T17:34:19.159Z,10.20
2023-02-14T17:36:45.905Z,10.10
2023-02-14T17:39:12.561Z,10.00
2023-02-14T17:41:39.691Z,9.90
2023-02-14T17:44:07.264Z,9.80
2023-02-14T17:46:34.011Z,9.70
2023-02-14T17:49:02.593Z,9.50
2023-02-14T17:51:29.526Z,9.40
2023-02-14T17:53:58.805Z,9.40
2023-02-14T17:56:26.327Z,9.30
2023-02-14T17:58:54.991Z,9.30
2023-02-14T18:01:26.778Z,9.20
2023-02-14T18:03:54.261Z,9.20
2023-02-14T18:06:21.597Z,9.20
2023-02-14T18:08:50.420Z,9.10
2023-02-14T18:11:18.544Z,9.10
2023-02-14T18:13:45.236Z,9.00
2023-02-14T18:16:15.023Z,9.00
2023-02-14T18:18:42.185Z,9.00
2023-02-14T18:21:11.451Z,8.90
2023-02-14T18:23:38.496Z,8.90
2023-02-14T18:26:08.403Z,8.80
2023-02-14T18:28:36.090Z,8.80
2023-02-14T18:31:05.408Z,8.80
2023-02-14T18:33:33.240Z,8.70
2023-02-14T18:36:07.756Z,8.70
2023-02-14T18:38:35.340Z,8.70
2023-02-14T18:41:06.884Z,8.60
2023-02-14T18:43:33.643Z,8.60
2023-02-14T18:46:12.373Z,8.50
2023-02-14T18:48:40.124Z,8.50
2023-02-14T18:51:09.554Z,8.50
2023-02-14T18:53:40.753Z,8.50
2023-02-14T18:56:15.356Z,8.50
2023-02-14T18:58:46.070Z,8.50
2023-02-14T19:01:18.589Z,8.50
2023-02-14T19:03:45.589Z,8.40
2023-02-14T19:06:13.157Z,8.40
2023-02-14T19:08:40.587Z,8.40
2023-02-14T19:11:15.220Z,8.30
2023-02-14T19:13:53.563Z,8.30
2023-02-14T19:16:27.100Z,8.20
2023-02-14T19:18:54.425Z,8.20
2023-02-14T19:21:23.888Z,8.20
2023-02-14T19:23:53.115Z,8.20
2023-02-14T19:26:22.247Z,8.10
2023-02-14T19:28:53.644Z,8.10
2023-02-14T19:31:20.473Z,8.10
2023-02-14T19:33:48.059Z,8.00
2023-02-14T19:36:17.189Z,8.00
2023-02-14T19:38:46.450Z,8.00
2023-02-14T19:41:18.677Z,7.90
2023-02-14T19:43:46.259Z,7.90
2023-02-14T19:46:18.013Z,7.80
2023-02-14T19:48:44.868Z,7.80
2023-02-14T19:51:29.414Z,7.70
2023-02-14T19:53:57.963Z,7.70
2023-02-14T19:56:27.192Z,7.70
2023-02-14T19:58:55.958Z,7.70
2023-02-14T20:01:34.209Z,7.70
2023-02-14T20:04:01.071Z,7.70
2023-02-14T20:06:29.336Z,7.60
2023-02-14T20:08:56.191Z,7.60
2023-02-14T20:11:31.020Z,7.60
2023-02-14T20:13:58.489Z,7.60
2023-02-14T20:16:26.789Z,7.60
2023-02-14T20:18:54.018Z,7.60
2023-02-14T20:21:25.364Z,7.60
2023-02-14T20:23:52.219Z,7.50
2023-02-14T20:26:19.505Z,7.50
2023-02-14T20:28:46.298Z,7.50
2023-02-14T20:31:15.127Z,7.50
2023-02-14T20:33:41.891Z,7.50
2023-02-14T20:36:09.632Z,7.50
2023-02-14T20:38:36.294Z,7.50
2023-02-14T20:41:07.340Z,7.50
2023-02-14T20:43:34.179Z,7.50
2023-02-14T20:46:01.962Z,7.40
2023-02-14T20:48:29.527Z,7.50
2023-02-14T20:50:56.254Z,7.40
2023-02-14T20:53:23.411Z,7.40
2023-02-14T20:55:51.749Z,7.40
2023-02-14T20:58:19.732Z,7.30
2023-02-14T21:00:46.454Z,7.30
2023-02-14T21:03:13.022Z,7.30
2023-02-14T21:05:40.214Z,7.30
2023-02-14T21:08:06.860Z,7.30
2023-02-14T21:10:33.436Z,7.30
2023-02-14T21:13:00.106Z,7.30
2023-02-14T21:15:27.515Z,7.30
2023-02-14T21:17:54.235Z,7.30
2023-02-14T21:20:21.023Z,7.20
2023-02-14T21:22:47.580Z,7.20
2023-02-14T21:25:14.281Z,7.20
2023-02-14T21:27:41.268Z,7.10
2023-02-14T21:30:08.596Z,7.10
2023-02-14T21:32:35.196Z,7.10
2023-02-14T21:35:01.833Z,7.10
2023-02-14T21:37:28.388Z,7.00
2023-02-14T21:39:54.985Z,7.00
2023-02-14T21:42:21.666Z,7.00
2023-02-14T21:45:06.917Z,6.90
2023-02-14T21:47:37.676Z,6.90
2023-02-14T21:50:23.433Z,7.00
2023-02-14T21:52:50.004Z,6.90
2023-02-14T21:55:16.691Z,6.90
2023-02-14T21:57:43.379Z,6.90
2023-02-14T22:00:10.381Z,6.90
2023-02-14T22:02:38.734Z,6.90
2023-02-14T22:05:07.576Z,6.90
2023-02-14T22:07:35.085Z,6.90
2023-02-14T22:10:02.383Z,6.90
2023-02-14T22:12:29.701Z,6.90
2023-02-14T22:15:00.048Z,6.90
2023-02-14T22:17:27.351Z,6.90
2023-02-14T22:19:54.512Z,6.90
2023-02-14T22:22:21.444Z,6.90
2023-02-14T22:24:48.482Z,6.80
2023-02-14T22:27:16.068Z,6.80
2023-02-14T22:29:43.048Z,6.80
2023-02-14T22:32:09.978Z,6.80
2023-02-14T22:34:36.633Z,6.80
2023-02-14T22:37:03.238Z,6.70
2023-02-14T22:39:29.907Z,6.70
2023-02-14T22:41:56.626Z,6.70
2023-02-14T22:44:23.238Z,6.60
2023-02-14T22:46:50.209Z,6.50
2023-02-14T22:49:17.381Z,6.50
2023-02-14T22:51:44.350Z,6.40
2023-02-14T22:54:13.689Z,6.40
2023-02-14T22:56:43.370Z,6.30
2023-02-14T22:59:19.050Z,6.30
2023-02-14T23:01:46.124Z,6.30
2023-02-14T23:04:14.622Z,6.20
2023-02-14T23:06:41.350Z,6.20
2023-02-14T23:09:09.464Z,6.20
2023-02-14T23:11:37.843Z,6.10
2023-02-14T23:14:24.316Z,6.10
2023-02-14T23:17:09.930Z,6.10
2023-02-14T23:19:55.370Z,6.00
2023-02-14T23:22:26.346Z,5.90
2023-02-14T23:24:57.115Z,6.00
2023-02-14T23:27:31.727Z,5.90
2023-02-14T23:29:58.366Z,5.90
2023-02-14T23:32:24.990Z,5.90
2023-02-14T23:34:52.017Z,5.90
2023-02-14T23:37:19.825Z,5.90
2023-02-14T23:39:46.497Z,5.90
2023-02-14T23:42:14.780Z,5.80
2023-02-14T23:44:43.464Z,5.80
2023-02-14T23:47:10.637Z,5.80
2023-02-14T23:49:39.017Z,5.80
2023-02-14T23:52:07.966Z,5.80
2023-02-14T23:54:35.348Z,5.80
2023-02-14T23:57:03.377Z,5.70
2023-02-14T23:59:30.296Z,5.70
